Time;durP1;ratioP1;P1;durP2;ratioP2;P2;SDS_P1;SDS_P2;PMS_P1;PMS_P2;Temp;Humidity;BMP_temperature;BMP_pressure;BME280_temperature;BME280_humidity;BME280_pressure;Samples;Min_cycle;Max_cycle;Signal;HPM_P1;HPM_P2
2021/01/14 00:02:25;;;;;;;0.60;0.60;;;0.40;99.90;;;;;;4827857;29;20247;-90
2021/01/14 00:04:52;;;;;;;0.55;0.55;;;0.40;99.90;;;;;;4829562;29;20249;-88
2021/01/14 00:07:19;;;;;;;0.50;0.50;;;0.40;99.90;;;;;;4829151;29;20283;-87
2021/01/14 00:09:47;;;;;;;0.50;0.50;;;0.40;99.90;;;;;;4827762;29;20672;-87
2021/01/14 00:12:14;;;;;;;0.50;0.50;;;0.40;99.90;;;;;;4829262;29;20207;-88
2021/01/14 00:14:40;;;;;;;0.60;0.60;;;0.50;99.90;;;;;;4829087;29;20515;-87
2021/01/14 00:17:06;;;;;;;0.50;0.50;;;0.50;99.90;;;;;;4827949;29;20241;-88
2021/01/14 00:19:32;;;;;;;0.50;0.50;;;0.50;99.90;;;;;;4833796;29;20212;-88
2021/01/14 00:21:58;;;;;;;0.50;0.50;;;0.50;99.90;;;;;;4838857;29;20233;-89
2021/01/14 00:24:25;;;;;;;0.50;0.50;;;0.50;99.90;;;;;;4838869;29;20240;-87
2021/01/14 00:26:51;;;;;;;0.52;0.52;;;0.40;99.90;;;;;;4838703;29;20223;-88
2021/01/14 00:29:18;;;;;;;0.50;0.50;;;0.40;99.90;;;;;;4838831;29;20216;-88
2021/01/14 00:31:44;;;;;;;0.60;0.60;;;0.30;99.90;;;;;;4838695;29;20736;-88
2021/01/14 00:34:10;;;;;;;0.57;0.57;;;0.30;99.90;;;;;;4838953;29;20242;-87
2021/01/14 00:39:19;;;;;;;0.50;0.50;;;0.30;99.90;;;;;;4837772;29;20652;-88
2021/01/14 00:41:45;;;;;;;0.60;0.60;;;0.30;99.90;;;;;;4838617;29;20725;-88
2021/01/14 00:44:11;;;;;;;0.60;0.60;;;0.20;99.90;;;;;;4838683;29;20239;-88
2021/01/14 00:46:38;;;;;;;0.50;0.50;;;0.20;99.90;;;;;;4838474;29;20218;-88
2021/01/14 00:49:05;;;;;;;0.50;0.50;;;0.20;99.90;;;;;;4838443;29;20663;-88
2021/01/14 00:51:33;;;;;;;0.50;0.50;;;0.20;99.90;;;;;;4838457;29;20687;-88
2021/01/14 00:53:59;;;;;;;0.50;0.50;;;0.20;99.90;;;;;;4838202;29;20365;-87
2021/01/14 00:56:30;;;;;;;0.50;0.50;;;0.10;99.90;;;;;;4838549;29;20208;-88
2021/01/14 00:58:56;;;;;;;0.50;0.50;;;0.10;99.90;;;;;;4838278;29;20219;-88
2021/01/14 01:01:23;;;;;;;0.50;0.50;;;0.10;99.90;;;;;;4838805;29;20211;-91
2021/01/14 01:03:51;;;;;;;0.50;0.50;;;0.10;99.90;;;;;;4838656;29;20228;-90
2021/01/14 01:06:18;;;;;;;0.50;0.50;;;-0.20;99.90;;;;;;4838668;29;20215;-89
2021/01/14 01:08:44;;;;;;;0.50;0.50;;;0.20;99.90;;;;;;4838346;29;20208;-90
2021/01/14 01:11:10;;;;;;;0.50;0.50;;;-0.30;99.90;;;;;;4838094;29;20216;-89
2021/01/14 01:13:36;;;;;;;0.50;0.50;;;0.00;99.90;;;;;;4837978;29;20215;-89
2021/01/14 01:16:02;;;;;;;0.50;0.50;;;0.00;99.90;;;;;;4837724;29;20226;-88
2021/01/14 01:18:28;;;;;;;0.50;0.50;;;0.00;99.90;;;;;;4838038;29;20215;-89
2021/01/14 01:20:55;;;;;;;0.40;0.40;;;0.00;99.90;;;;;;4838015;29;20582;-89
2021/01/14 01:23:21;;;;;;;0.40;0.40;;;0.00;99.90;;;;;;4837492;29;20243;-89
2021/01/14 01:25:47;;;;;;;0.50;0.50;;;0.00;99.90;;;;;;4837637;29;20731;-89
2021/01/14 01:28:13;;;;;;;0.40;0.40;;;0.00;99.90;;;;;;4837840;29;20215;-88
2021/01/14 01:30:39;;;;;;;0.40;0.40;;;0.00;99.90;;;;;;4837741;29;20295;-89
2021/01/14 01:33:06;;;;;;;0.40;0.40;;;0.00;99.90;;;;;;4838064;29;20245;-89
2021/01/14 01:35:32;;;;;;;0.40;0.40;;;0.10;99.90;;;;;;4837652;29;20207;-90
2021/01/14 01:37:59;;;;;;;0.40;0.40;;;0.00;99.90;;;;;;4838022;29;20223;-88
2021/01/14 01:40:25;;;;;;;0.40;0.40;;;0.10;99.90;;;;;;4837754;29;20207;-89
2021/01/14 01:42:54;;;;;;;0.40;0.40;;;0.10;99.90;;;;;;4837368;29;20212;-88
2021/01/14 01:45:23;;;;;;;0.40;0.40;;;0.10;99.90;;;;;;4837815;29;20592;-88
2021/01/14 01:47:50;;;;;;;0.40;0.40;;;0.10;99.90;;;;;;4837782;29;20219;-89
2021/01/14 01:50:19;;;;;;;0.40;0.40;;;0.10;99.90;;;;;;4837840;29;20219;-89
2021/01/14 01:52:45;;;;;;;0.40;0.40;;;0.10;99.90;;;;;;4837317;29;20211;-88
2021/01/14 01:55:12;;;;;;;0.40;0.40;;;0.10;99.90;;;;;;4837560;29;20982;-89
2021/01/14 01:57:40;;;;;;;0.40;0.40;;;0.20;99.90;;;;;;4837408;29;20675;-88
2021/01/14 02:00:07;;;;;;;0.40;0.40;;;0.10;99.90;;;;;;4837478;29;20218;-89
2021/01/14 02:02:33;;;;;;;0.40;0.40;;;0.10;99.90;;;;;;4837671;29;20218;-88
2021/01/14 02:04:59;;;;;;;0.40;0.40;;;0.10;99.90;;;;;;4837294;29;20231;-89
2021/01/14 02:07:37;;;;;;;0.40;0.40;;;0.10;99.90;;;;;;4837275;29;20212;-88
2021/01/14 02:10:09;;;;;;;0.40;0.40;;;0.20;99.90;;;;;;4837373;29;20211;-89
2021/01/14 02:12:46;;;;;;;0.40;0.40;;;0.20;99.90;;;;;;4837555;29;20207;-89
2021/01/14 02:15:13;;;;;;;0.40;0.40;;;0.20;99.90;;;;;;4837582;29;20239;-89
2021/01/14 02:17:40;;;;;;;0.40;0.40;;;0.20;99.90;;;;;;4837264;29;20208;-90
2021/01/14 02:20:08;;;;;;;0.40;0.40;;;0.20;99.90;;;;;;4837450;29;20722;-90
2021/01/14 02:22:41;;;;;;;0.40;0.40;;;0.10;99.90;;;;;;4837670;29;20211;-90
2021/01/14 02:25:13;;;;;;;0.40;0.40;;;0.20;99.90;;;;;;4837270;29;20244;-90
2021/01/14 02:27:40;;;;;;;0.40;0.40;;;0.10;99.90;;;;;;4839766;29;20577;-90
2021/01/14 02:30:11;;;;;;;0.38;0.38;;;0.30;99.90;;;;;;4841259;29;20211;-90
2021/01/14 02:32:39;;;;;;;0.40;0.40;;;0.30;99.90;;;;;;4841905;29;20214;-90
2021/01/14 02:35:06;;;;;;;0.40;0.40;;;0.30;99.90;;;;;;4840929;29;20272;-87
2021/01/14 02:37:32;;;;;;;0.40;0.40;;;0.30;99.90;;;;;;4840834;29;20264;-87
2021/01/14 02:39:58;;;;;;;0.40;0.40;;;0.30;99.90;;;;;;4841067;29;20211;-87
2021/01/14 02:42:24;;;;;;;0.40;0.40;;;0.30;99.90;;;;;;4840709;29;20257;-87
2021/01/14 02:44:51;;;;;;;0.40;0.40;;;0.30;99.90;;;;;;4840455;29;20235;-87
2021/01/14 02:47:19;;;;;;;0.40;0.40;;;0.30;99.90;;;;;;4840780;29;20218;-88
2021/01/14 02:49:49;;;;;;;0.40;0.40;;;0.30;99.90;;;;;;4840568;29;20220;-88
2021/01/14 02:52:16;;;;;;;0.40;0.40;;;0.40;99.90;;;;;;4840724;29;20207;-89
2021/01/14 02:54:44;;;;;;;0.40;0.40;;;0.40;99.90;;;;;;4840518;29;20215;-89
2021/01/14 02:57:11;;;;;;;0.40;0.40;;;0.40;99.90;;;;;;4840522;29;20267;-88
2021/01/14 02:59:38;;;;;;;0.40;0.40;;;0.40;99.90;;;;;;4840360;29;20215;-89
2021/01/14 03:02:05;;;;;;;0.40;0.40;;;0.40;99.90;;;;;;4840229;29;20457;-89
2021/01/14 03:04:31;;;;;;;0.40;0.40;;;0.40;99.90;;;;;;4840402;29;20600;-89
2021/01/14 03:06:57;;;;;;;0.40;0.40;;;0.40;99.90;;;;;;4840245;29;20212;-89
2021/01/14 03:09:23;;;;;;;0.40;0.40;;;0.50;99.90;;;;;;4840348;29;20672;-89
2021/01/14 03:11:50;;;;;;;0.40;0.40;;;0.40;99.90;;;;;;4840467;29;20218;-89
2021/01/14 03:14:16;;;;;;;0.40;0.40;;;0.40;99.90;;;;;;4840673;29;20253;-90
2021/01/14 03:16:42;;;;;;;0.40;0.40;;;0.50;99.90;;;;;;4840477;29;20268;-89
2021/01/14 03:19:09;;;;;;;0.40;0.40;;;0.40;99.90;;;;;;4840268;29;20219;-90
2021/01/14 03:21:35;;;;;;;0.40;0.40;;;0.60;99.90;;;;;;4840133;29;20444;-89
2021/01/14 03:24:01;;;;;;;0.40;0.40;;;0.50;99.90;;;;;;4840082;29;20243;-90
2021/01/14 03:26:27;;;;;;;0.40;0.40;;;0.50;99.90;;;;;;4840148;29;20208;-90
2021/01/14 03:28:53;;;;;;;0.40;0.40;;;0.50;99.90;;;;;;4840014;29;20256;-89
2021/01/14 03:31:20;;;;;;;0.40;0.40;;;0.50;99.90;;;;;;4840141;29;20208;-90
2021/01/14 03:33:47;;;;;;;0.40;0.40;;;0.50;99.90;;;;;;4840198;29;20216;-90
2021/01/14 03:36:18;;;;;;;0.40;0.40;;;0.50;99.90;;;;;;4839993;29;20216;-90
2021/01/14 03:38:44;;;;;;;0.40;0.40;;;0.50;99.90;;;;;;4839833;29;20238;-91
2021/01/14 03:41:15;;;;;;;0.40;0.40;;;0.50;99.90;;;;;;4840391;29;20211;-92
2021/01/14 03:43:41;;;;;;;0.50;0.50;;;0.90;99.90;;;;;;4840022;29;20274;-92
2021/01/14 03:46:10;;;;;;;0.40;0.40;;;0.50;99.90;;;;;;4840056;29;20555;-92
2021/01/14 03:48:39;;;;;;;0.40;0.40;;;0.50;99.90;;;;;;4840362;29;20612;-90
2021/01/14 03:51:13;;;;;;;0.40;0.40;;;0.60;99.90;;;;;;4840018;29;20224;-91
2021/01/14 03:53:40;;;;;;;0.50;0.50;;;0.60;99.90;;;;;;4840267;29;20198;-91
2021/01/14 03:56:06;;;;;;;0.40;0.40;;;0.60;99.90;;;;;;4840156;29;20223;-91
2021/01/14 03:58:32;;;;;;;0.50;0.50;;;0.60;99.90;;;;;;4839997;29;20593;-90
2021/01/14 04:00:59;;;;;;;0.47;0.47;;;0.60;99.90;;;;;;4839758;29;20563;-91
2021/01/14 04:03:25;;;;;;;0.50;0.50;;;0.60;99.90;;;;;;4839627;29;20219;-91
2021/01/14 04:05:51;;;;;;;0.50;0.50;;;0.60;99.90;;;;;;4839552;29;20211;-91
2021/01/14 04:08:17;;;;;;;0.47;0.47;;;0.60;99.90;;;;;;4839563;29;20694;-91
2021/01/14 04:10:44;;;;;;;0.43;0.43;;;0.60;99.90;;;;;;4839496;29;20216;-91
2021/01/14 04:13:10;;;;;;;0.50;0.50;;;0.60;99.90;;;;;;4839441;29;20876;-91
2021/01/14 04:15:36;;;;;;;0.50;0.50;;;0.70;99.90;;;;;;4839504;29;20204;-92
2021/01/14 04:18:03;;;;;;;0.50;0.50;;;0.60;99.90;;;;;;4839532;29;20228;-91
2021/01/14 04:20:29;;;;;;;0.50;0.50;;;0.70;99.90;;;;;;4839468;29;20215;-91
2021/01/14 04:22:55;;;;;;;0.50;0.50;;;0.70;99.90;;;;;;4839147;29;20361;-90
2021/01/14 04:25:30;;;;;;;0.50;0.50;;;0.70;99.90;;;;;;4839438;29;20231;-91
2021/01/14 04:27:57;;;;;;;0.40;0.40;;;0.70;99.90;;;;;;4839328;29;20365;-92
2021/01/14 04:30:27;;;;;;;0.50;0.50;;;0.70;99.90;;;;;;4839425;29;20238;-91
2021/01/14 04:33:08;;;;;;;0.50;0.50;;;0.60;99.90;;;;;;4839743;29;20219;-91
2021/01/14 04:35:34;;;;;;;0.47;0.47;;;0.70;99.90;;;;;;4839832;29;20260;-91
2021/01/14 04:38:00;;;;;;;0.40;0.40;;;0.70;99.90;;;;;;4839743;29;20215;-88
2021/01/14 04:40:26;;;;;;;0.50;0.50;;;0.70;99.90;;;;;;4838878;29;20239;-90
2021/01/14 04:42:53;;;;;;;0.50;0.50;;;0.70;99.90;;;;;;4838643;29;20300;-89
2021/01/14 04:45:21;;;;;;;0.47;0.47;;;0.70;99.90;;;;;;4838624;29;20607;-89
2021/01/14 04:47:50;;;;;;;0.50;0.50;;;0.70;99.90;;;;;;4838688;29;20216;-89
2021/01/14 04:50:18;;;;;;;0.50;0.50;;;0.70;99.90;;;;;;4837934;29;20215;-90
2021/01/14 04:52:47;;;;;;;0.50;0.50;;;0.70;99.90;;;;;;4838388;29;20213;-89
2021/01/14 04:55:14;;;;;;;0.50;0.50;;;0.70;99.90;;;;;;4838338;29;20703;-89
2021/01/14 04:57:43;;;;;;;0.40;0.40;;;0.70;99.90;;;;;;4838462;29;20239;-90
2021/01/14 05:00:12;;;;;;;0.50;0.50;;;0.70;99.90;;;;;;4838322;29;20303;-90
2021/01/14 05:02:53;;;;;;;0.50;0.50;;;0.70;99.90;;;;;;4822383;29;20216;-90
2021/01/14 05:05:23;;;;;;;0.50;0.50;;;0.70;99.90;;;;;;4838396;29;20231;-91
2021/01/14 05:08:02;;;;;;;0.50;0.50;;;0.70;99.90;;;;;;4838818;29;20207;-90
2021/01/14 05:10:31;;;;;;;0.50;0.50;;;0.70;99.90;;;;;;4838256;29;20231;-91
2021/01/14 05:12:57;;;;;;;0.50;0.50;;;0.70;99.90;;;;;;4838050;29;20215;-91
2021/01/14 05:15:26;;;;;;;0.50;0.50;;;0.80;99.90;;;;;;4838505;29;20224;-90
2021/01/14 05:17:53;;;;;;;0.50;0.50;;;0.70;99.90;;;;;;4838101;29;20211;-91
2021/01/14 05:20:20;;;;;;;0.50;0.50;;;0.70;99.90;;;;;;4838712;29;20214;-91
2021/01/14 05:22:48;;;;;;;0.50;0.50;;;0.80;99.90;;;;;;4838668;29;20443;-91
2021/01/14 05:25:14;;;;;;;0.50;0.50;;;0.80;99.90;;;;;;4837948;29;20657;-91
2021/01/14 05:27:41;;;;;;;0.50;0.50;;;0.80;99.90;;;;;;4838044;29;20642;-91
2021/01/14 05:30:11;;;;;;;0.50;0.50;;;0.80;99.90;;;;;;4838084;29;20697;-91
2021/01/14 05:32:38;;;;;;;0.50;0.50;;;0.80;99.90;;;;;;4838034;29;20227;-91
2021/01/14 05:35:07;;;;;;;0.50;0.50;;;0.80;99.90;;;;;;4837716;29;20208;-91
2021/01/14 05:37:35;;;;;;;0.50;0.50;;;0.80;99.90;;;;;;4837959;29;20239;-91
2021/01/14 05:40:03;;;;;;;0.50;0.50;;;0.80;99.90;;;;;;4837997;29;20494;-91
2021/01/14 05:42:29;;;;;;;0.50;0.50;;;0.80;99.90;;;;;;4838035;29;20215;-91
2021/01/14 05:44:55;;;;;;;0.50;0.50;;;0.80;99.90;;;;;;4837511;29;20707;-91
2021/01/14 05:47:23;;;;;;;0.50;0.50;;;0.80;99.90;;;;;;4837889;29;20569;-91
2021/01/14 05:49:56;;;;;;;0.50;0.50;;;1.20;99.90;;;;;;4837906;29;20277;-91
2021/01/14 05:52:25;;;;;;;0.50;0.50;;;0.80;99.90;;;;;;4837737;29;20222;-91
2021/01/14 05:55:00;;;;;;;0.50;0.50;;;0.80;99.90;;;;;;4837646;29;20219;-92
2021/01/14 05:57:30;;;;;;;0.50;0.50;;;0.80;99.90;;;;;;4838509;29;20651;-92
2021/01/14 05:59:59;;;;;;;0.40;0.40;;;0.80;99.90;;;;;;4837742;29;20570;-90
2021/01/14 06:02:32;;;;;;;0.50;0.50;;;0.80;99.90;;;;;;4837610;29;20212;-89
2021/01/14 06:04:59;;;;;;;0.50;0.50;;;0.80;99.90;;;;;;4837855;29;20231;-89
2021/01/14 06:07:41;;;;;;;0.50;0.50;;;0.80;99.90;;;;;;4837511;29;20212;-89
2021/01/14 06:10:09;;;;;;;0.50;0.50;;;0.80;99.90;;;;;;4837458;29;20264;-89
2021/01/14 06:12:47;;;;;;;0.50;0.50;;;0.80;99.90;;;;;;4837146;29;20519;-90
2021/01/14 06:15:16;;;;;;;0.50;0.50;;;0.80;99.90;;;;;;4837696;29;20211;-93
2021/01/14 06:17:44;;;;;;;0.50;0.50;;;0.80;99.90;;;;;;4838069;29;20223;-93
2021/01/14 06:20:10;;;;;;;0.50;0.50;;;0.90;99.90;;;;;;4838124;29;20264;-92
2021/01/14 06:22:44;;;;;;;0.50;0.50;;;1.10;99.90;;;;;;4838068;29;20219;-91
2021/01/14 06:25:11;;;;;;;0.50;0.50;;;0.80;99.90;;;;;;4837103;29;20239;-88
2021/01/14 06:27:37;;;;;;;0.50;0.50;;;0.80;99.90;;;;;;4837020;29;20267;-87
2021/01/14 06:30:06;;;;;;;0.50;0.50;;;0.80;99.90;;;;;;4837319;29;20216;-88
2021/01/14 06:32:33;;;;;;;0.50;0.50;;;0.80;99.90;;;;;;4837391;29;20263;-87
2021/01/14 06:35:00;;;;;;;0.40;0.40;;;0.80;99.90;;;;;;4837623;29;20207;-90
2021/01/14 06:37:27;;;;;;;0.50;0.50;;;0.80;99.90;;;;;;4837594;29;20216;-91
2021/01/14 06:39:56;;;;;;;0.50;0.50;;;0.80;99.90;;;;;;4837368;29;20207;-90
2021/01/14 06:42:24;;;;;;;0.50;0.50;;;0.70;99.90;;;;;;4837265;29;20259;-89
2021/01/14 06:44:53;;;;;;;0.50;0.50;;;0.80;99.90;;;;;;4837217;29;20271;-90
2021/01/14 06:47:34;;;;;;;0.50;0.50;;;0.80;99.90;;;;;;4838088;29;20211;-91
2021/01/14 06:50:24;;;;;;;0.50;0.50;;;0.80;99.90;;;;;;4838504;29;20272;-90
2021/01/14 06:53:01;;;;;;;0.50;0.50;;;0.70;99.90;;;;;;4838062;29;20220;-91
2021/01/14 07:02:51;;;;;;;0.50;0.50;;;0.80;99.90;;;;;;4808672;29;20220;-91
2021/01/14 07:05:28;;;;;;;0.50;0.50;;;0.80;99.90;;;;;;4837610;29;20699;-90
2021/01/14 07:08:15;;;;;;;0.50;0.50;;;0.80;99.90;;;;;;4821766;29;20664;-90
2021/01/14 07:10:51;;;;;;;0.50;0.50;;;1.70;99.90;;;;;;4833082;29;20219;-90
2021/01/14 07:13:22;;;;;;;0.50;0.50;;;0.80;99.90;;;;;;4828144;29;20211;-90
2021/01/14 07:15:51;;;;;;;0.57;0.57;;;0.40;99.90;;;;;;4830878;29;20208;-90
2021/01/14 07:18:27;;;;;;;0.50;0.50;;;0.80;99.90;;;;;;4829448;29;20462;-91
2021/01/14 07:20:57;;;;;;;0.50;0.50;;;0.80;99.90;;;;;;4828984;29;20473;-89
2021/01/14 07:23:25;;;;;;;0.50;0.50;;;0.80;99.90;;;;;;4871900;23;20495;-88
2021/01/14 07:25:52;;;;;;;0.50;0.50;;;0.20;99.90;;;;;;4858003;29;20670;-89
2021/01/14 07:28:19;;;;;;;0.50;0.50;;;;;;;;;;4859268;29;20726;-89
2021/01/14 07:30:46;;;;;;;0.50;0.50;;;;;;;;;;4857940;29;20211;-89
2021/01/14 07:33:12;;;;;;;0.50;0.50;;;;;;;;;;4857933;29;20207;-87
2021/01/14 07:35:44;;;;;;;0.50;0.50;;;0.80;99.90;;;;;;4858741;29;20215;-89
2021/01/14 07:38:12;;;;;;;0.50;0.50;;;0.80;99.90;;;;;;4854375;29;20290;-89
2021/01/14 07:40:39;;;;;;;0.50;0.50;;;0.80;99.90;;;;;;4856697;29;20217;-89
2021/01/14 07:43:07;;;;;;;0.50;0.50;;;0.80;99.90;;;;;;4856878;29;20215;-89
2021/01/14 07:45:33;;;;;;;0.50;0.50;;;0.40;99.90;;;;;;4858453;29;20573;-87
2021/01/14 07:48:20;;;;;;;0.50;0.50;;;0.80;99.90;;;;;;4858900;29;20957;-89
2021/01/14 07:50:57;;;;;;;0.50;0.50;;;0.80;99.90;;;;;;4857789;29;20207;-89
2021/01/14 07:53:25;;;;;;;0.50;0.50;;;0.80;99.90;;;;;;4859586;29;20278;-88
2021/01/14 07:55:51;;;;;;;0.50;0.50;;;;;;;;;;4859302;29;20205;-88
2021/01/14 07:58:25;;;;;;;0.50;0.50;;;1.10;99.90;;;;;;4859664;29;20686;-88
2021/01/14 08:01:10;;;;;;;0.50;0.50;;;0.70;99.90;;;;;;4856618;29;20560;-89
2021/01/14 08:03:37;;;;;;;0.50;0.50;;;;;;;;;;4858674;29;20211;-89
2021/01/14 08:06:26;;;;;;;0.50;0.50;;;0.80;99.90;;;;;;4859423;29;20214;-89
2021/01/14 08:09:01;;;;;;;0.50;0.50;;;0.60;99.90;;;;;;4860134;29;20726;-90
2021/01/14 08:11:28;;;;;;;0.50;0.50;;;0.80;99.90;;;;;;4859147;29;20647;-89
2021/01/14 08:14:11;;;;;;;0.50;0.50;;;2.80;99.90;;;;;;4860194;29;20215;-88
2021/01/14 08:16:40;;;;;;;0.50;0.50;;;0.80;99.90;;;;;;4859849;29;20796;-89
2021/01/14 08:19:32;;;;;;;0.60;0.60;;;2.10;99.90;;;;;;4858648;29;20207;-89
2021/01/14 08:22:09;;;;;;;0.50;0.50;;;1.70;99.90;;;;;;4859739;29;20644;-89
2021/01/14 08:27:35;;;;;;;0.50;0.50;;;0.70;99.90;;;;;;4858772;29;20692;-87
2021/01/14 08:30:06;;;;;;;0.50;0.50;;;0.50;99.90;;;;;;4859922;29;20299;-89
2021/01/14 08:32:41;;;;;;;0.50;0.50;;;0.60;99.90;;;;;;4860078;29;20601;-89
2021/01/14 08:35:16;;;;;;;0.50;0.50;;;1.30;99.90;;;;;;4854936;29;20602;-89
2021/01/14 08:37:49;;;;;;;0.60;0.60;;;0.70;99.90;;;;;;4857406;29;20214;-88
2021/01/14 08:40:17;;;;;;;0.50;0.50;;;0.60;99.90;;;;;;4853208;29;20222;-90
2021/01/14 08:42:44;;;;;;;0.50;0.50;;;0.70;99.90;;;;;;4853713;29;20215;-88
2021/01/14 08:45:14;;;;;;;0.50;0.50;;;0.70;99.90;;;;;;4853645;29;20231;-89
2021/01/14 08:48:00;;;;;;;0.57;0.57;;;0.70;99.90;;;;;;4853074;29;20207;-88
2021/01/14 08:50:44;;;;;;;0.50;0.50;;;0.70;99.90;;;;;;4854440;29;20206;-89
2021/01/14 08:53:13;;;;;;;0.50;0.50;;;0.90;99.90;;;;;;4851427;29;20587;-89
2021/01/14 08:55:40;;;;;;;0.60;0.60;;;0.60;99.90;;;;;;4851981;29;20224;-90
2021/01/14 08:58:08;;;;;;;0.50;0.50;;;0.50;99.90;;;;;;4850071;29;20204;-89
2021/01/14 09:00:37;;;;;;;0.50;0.50;;;1.20;99.90;;;;;;4849581;29;20297;-88
2021/01/14 09:03:04;;;;;;;0.50;0.50;;;0.30;99.90;;;;;;4859596;29;20254;-89
2021/01/14 09:05:32;;;;;;;0.50;0.50;;;0.30;99.90;;;;;;4857995;29;20576;-89
2021/01/14 09:08:06;;;;;;;0.50;0.50;;;0.30;99.90;;;;;;4854810;29;20210;-89
2021/01/14 09:10:47;;;;;;;0.50;0.50;;;0.90;99.90;;;;;;4851821;29;20223;-89
2021/01/14 09:13:14;;;;;;;0.60;0.60;;;0.20;99.90;;;;;;4848060;29;20617;-89
2021/01/14 09:15:41;;;;;;;0.57;0.57;;;0.60;99.90;;;;;;4850843;29;20683;-90
2021/01/14 09:18:08;;;;;;;0.60;0.60;;;2.20;99.90;;;;;;4853238;29;20306;-89
2021/01/14 09:20:34;;;;;;;0.50;0.50;;;0.00;99.90;;;;;;4855079;29;20207;-90
2021/01/14 09:23:24;;;;;;;0.60;0.60;;;-0.10;99.90;;;;;;4856458;29;20766;-91
2021/01/14 09:25:53;;;;;;;0.50;0.50;;;-0.60;99.90;;;;;;4853407;29;20242;-90
2021/01/14 09:28:23;;;;;;;0.50;0.50;;;0.50;99.90;;;;;;4853182;29;20203;-91
2021/01/14 09:30:58;;;;;;;0.50;0.50;;;-0.10;99.90;;;;;;4854265;29;20240;-89
2021/01/14 09:33:26;;;;;;;0.50;0.50;;;0.40;99.90;;;;;;4852134;29;20325;-91
2021/01/14 09:36:04;;;;;;;0.50;0.50;;;0.80;99.90;;;;;;4857703;29;20219;-90
2021/01/14 09:38:37;;;;;;;0.60;0.60;;;0.30;99.90;;;;;;4850916;29;20225;-90
2021/01/14 09:41:05;;;;;;;0.50;0.50;;;0.30;99.90;;;;;;4849243;29;20206;-89
2021/01/14 09:43:34;;;;;;;0.50;0.50;;;0.80;99.90;;;;;;4859911;29;20297;-88
2021/01/14 09:46:02;;;;;;;0.55;0.55;;;0.70;99.90;;;;;;4854146;29;20235;-89
2021/01/14 09:48:32;;;;;;;0.50;0.50;;;0.80;99.90;;;;;;4859015;29;20247;-90
2021/01/14 09:50:58;;;;;;;0.50;0.50;;;0.30;99.90;;;;;;4852694;29;20348;-88
2021/01/14 09:53:26;;;;;;;0.50;0.50;;;1.30;99.90;;;;;;4847571;29;20203;-88
2021/01/14 09:55:56;;;;;;;0.50;0.50;;;0.90;99.90;;;;;;4848650;29;20235;-90
2021/01/14 09:58:26;;;;;;;0.50;0.50;;;2.00;99.90;;;;;;4848778;29;20212;-89
2021/01/14 10:00:53;;;;;;;0.50;0.50;;;0.90;99.90;;;;;;4850289;29;20225;-89
2021/01/14 10:03:22;;;;;;;0.50;0.50;;;1.00;99.90;;;;;;4857784;29;20236;-90
2021/01/14 10:05:50;;;;;;;0.60;0.60;;;3.60;99.90;;;;;;4857220;29;20239;-89
2021/01/14 10:08:22;;;;;;;0.60;0.60;;;0.70;99.90;;;;;;4851640;29;20635;-90
2021/01/14 10:10:49;;;;;;;0.60;0.60;;;0.70;99.90;;;;;;4855664;29;20204;-90
2021/01/14 10:13:16;;;;;;;0.60;0.60;;;1.10;99.90;;;;;;4850206;29;20222;-89
2021/01/14 10:15:44;;;;;;;0.57;0.57;;;0.90;99.90;;;;;;4849949;29;20586;-89
2021/01/14 10:18:25;;;;;;;0.50;0.50;;;0.80;99.90;;;;;;4848266;29;20204;-90
2021/01/14 10:21:03;;;;;;;0.50;0.50;;;1.10;99.90;;;;;;4854731;29;21084;-89
2021/01/14 10:23:30;;;;;;;0.60;0.60;;;0.70;99.90;;;;;;4853141;29;20250;-89
2021/01/14 10:25:56;;;;;;;0.52;0.52;;;0.50;99.90;;;;;;4872558;29;20628;-89
2021/01/14 10:28:24;;;;;;;0.50;0.50;;;2.30;99.90;;;;;;4858175;29;20203;-90
2021/01/14 10:30:57;;;;;;;0.50;0.50;;;1.80;99.90;;;;;;4866349;29;20206;-88
2021/01/14 10:33:24;;;;;;;0.50;0.50;;;1.30;99.90;;;;;;4858850;29;20293;-89
2021/01/14 10:36:03;;;;;;;0.55;0.55;;;2.00;99.90;;;;;;4856183;29;20203;-89
2021/01/14 10:38:30;;;;;;;0.50;0.50;;;1.80;99.90;;;;;;4849793;29;20294;-91
2021/01/14 10:40:58;;;;;;;0.50;0.50;;;0.00;99.90;;;;;;4854553;29;20203;-90
2021/01/14 10:43:34;;;;;;;0.55;0.55;;;0.50;99.90;;;;;;4854395;29;20267;-91
2021/01/14 10:46:13;;;;;;;0.50;0.50;;;1.20;99.90;;;;;;4850946;29;20230;-91
2021/01/14 10:48:42;;;;;;;0.50;0.50;;;2.40;99.90;;;;;;4853003;29;20230;-91
2021/01/14 10:51:29;;;;;;;0.50;0.50;;;0.00;99.90;;;;;;4857544;29;20217;-90
2021/01/14 10:53:59;;;;;;;0.50;0.50;;;;;;;;;;4852555;29;20581;-89
2021/01/14 10:56:29;;;;;;;0.50;0.50;;;-0.50;99.90;;;;;;4851111;29;20227;-90
2021/01/14 10:59:16;;;;;;;0.50;0.50;;;1.30;99.90;;;;;;4853150;29;20252;-90
2021/01/14 11:02:02;;;;;;;0.60;0.60;;;0.80;99.90;;;;;;4851419;29;20943;-90
2021/01/14 11:04:32;;;;;;;0.50;0.50;;;1.50;99.90;;;;;;4850332;29;20231;-89
2021/01/14 11:07:13;;;;;;;0.50;0.50;;;1.30;99.90;;;;;;4854633;29;20207;-91
2021/01/14 11:09:57;;;;;;;0.50;0.50;;;0.90;99.90;;;;;;4853715;29;20259;-90
2021/01/14 11:12:31;;;;;;;0.50;0.50;;;3.60;99.90;;;;;;4854573;29;20211;-91
2021/01/14 11:14:58;;;;;;;0.50;0.50;;;1.20;99.90;;;;;;4851898;29;20842;-89
2021/01/14 11:17:31;;;;;;;0.50;0.50;;;1.50;99.90;;;;;;4853590;29;20327;-89
2021/01/14 11:20:01;;;;;;;0.50;0.50;;;3.90;99.90;;;;;;4853264;29;20207;-91
2021/01/14 11:22:30;;;;;;;0.50;0.50;;;1.10;99.90;;;;;;4856762;29;20211;-89
2021/01/14 11:25:46;;;;;;;0.50;0.50;;;3.80;99.90;;;;;;4861449;29;20235;-90
2021/01/14 11:41:50;;;;;;;;;;;;;;;;;;;;;
2021/01/14 12:18:59;;;;;;;0.50;0.50;;;0.90;99.90;;;;;;4603518;30;20394;-92
2021/01/14 12:21:49;;;;;;;0.50;0.50;;;1.70;99.90;;;;;;4633094;30;20241;-90
2021/01/14 12:24:41;;;;;;;0.50;0.50;;;3.30;99.90;;;;;;4670087;30;20237;-89
2021/01/14 12:48:09;;;;;;;0.50;0.50;;;1.10;99.90;;;;;;4655884;30;20304;-90
2021/01/14 12:50:36;;;;;;;0.50;0.50;;;;;;;;;;4694685;30;20225;-89
2021/01/14 12:53:14;;;;;;;0.50;0.50;;;1.10;99.90;;;;;;4764072;29;20204;-89
2021/01/14 12:55:51;;;;;;;0.50;0.50;;;5.30;99.90;;;;;;4838402;29;20283;-90
2021/01/14 12:58:31;;;;;;;0.50;0.50;;;1.60;99.90;;;;;;4838555;29;20675;-91
2021/01/14 13:04:55;;;;;;;0.50;0.50;;;1.00;99.90;;;;;;4782427;29;20607;-91
2021/01/14 13:17:50;;;;;;;0.50;0.50;;;1.40;99.90;;;;;;4762439;30;20275;-90
2021/01/14 13:30:46;;;;;;;0.50;0.50;;;3.30;99.90;;;;;;4651644;30;20238;-89
2021/01/14 13:33:21;;;;;;;0.50;0.50;;;3.00;99.90;;;;;;4807173;29;20648;-91
2021/01/14 13:36:13;;;;;;;0.50;0.50;;;1.00;99.90;;;;;;4836306;29;20230;-91
2021/01/14 13:42:39;;;;;;;0.50;0.50;;;0.70;99.90;;;;;;4819005;29;20211;-90
2021/01/14 13:45:16;;;;;;;0.50;0.50;;;0.50;99.90;;;;;;4838815;29;20232;-90
2021/01/14 13:48:10;;;;;;;;;;;;;;;;;;;;;
2021/01/14 14:54:34;;;;;;;0.50;0.50;;;0.60;99.90;;;;;;4509576;31;20254;-87
2021/01/14 14:57:29;;;;;;;0.40;0.40;;;0.70;99.90;;;;;;4587376;31;20445;-91
2021/01/14 15:03:26;;;;;;;0.40;0.40;;;;;;;;;;4588938;31;20220;-87
2021/01/14 15:06:08;;;;;;;0.50;0.50;;;1.00;99.90;;;;;;4635849;30;20330;-88
2021/01/14 15:08:39;;;;;;;0.50;0.50;;;0.80;99.90;;;;;;4628729;30;20223;-87
2021/01/14 15:14:52;;;;;;;0.50;0.50;;;0.80;99.90;;;;;;4614156;30;20862;-90
2021/01/14 15:17:23;;;;;;;0.50;0.50;;;0.80;99.90;;;;;;4689580;30;20209;-87
2021/01/14 15:19:52;;;;;;;0.50;0.50;;;0.50;99.90;;;;;;4696456;30;20225;-89
2021/01/14 15:22:20;;;;;;;0.50;0.50;;;-0.30;99.90;;;;;;4740201;30;20695;-89
2021/01/14 15:24:53;;;;;;;0.50;0.50;;;0.60;99.90;;;;;;4789411;29;20237;-88
2021/01/14 15:27:24;;;;;;;0.50;0.50;;;-0.20;99.90;;;;;;4801723;29;20209;-90
2021/01/14 15:32:59;;;;;;;0.47;0.47;;;2.60;99.90;;;;;;4838091;29;20537;-89
2021/01/14 15:35:48;;;;;;;0.50;0.50;;;0.20;99.90;;;;;;4838718;29;20208;-90
2021/01/14 15:38:15;;;;;;;0.50;0.50;;;;;;;;;;4841281;29;20676;-88
2021/01/14 15:43:55;;;;;;;0.50;0.50;;;1.30;99.90;;;;;;4821488;29;20275;-91
2021/01/14 15:46:30;;;;;;;0.50;0.50;;;0.30;99.90;;;;;;4840411;29;20227;-88
2021/01/14 15:49:01;;;;;;;0.50;0.50;;;0.60;99.90;;;;;;4840721;29;20219;-90
2021/01/14 16:06:37;;;;;;;0.50;0.50;;;0.60;99.90;;;;;;4654973;30;20305;-91
2021/01/14 16:10:03;;;;;;;0.50;0.50;;;2.90;99.90;;;;;;4680125;29;20223;-89
2021/01/14 16:46:04;;;;;;;0.47;0.47;;;0.80;99.90;;;;;;4859407;24;20737;-85
2021/01/14 16:48:31;;;;;;;0.50;0.50;;;;;;;;;;4849815;29;20221;-86
2021/01/14 16:50:57;;;;;;;0.40;0.40;;;0.70;99.90;;;;;;4854498;29;20211;-85
2021/01/14 16:53:23;;;;;;;0.50;0.50;;;0.70;99.90;;;;;;4857501;29;20701;-85
2021/01/14 16:55:49;;;;;;;0.50;0.50;;;0.70;99.90;;;;;;4854324;29;20207;-85
2021/01/14 16:58:15;;;;;;;0.47;0.47;;;0.60;99.90;;;;;;4857825;29;20203;-84
2021/01/14 17:00:41;;;;;;;0.50;0.50;;;0.60;99.90;;;;;;4856901;29;20211;-85
2021/01/14 17:03:08;;;;;;;0.50;0.50;;;0.70;99.90;;;;;;4857456;29;20239;-85
2021/01/14 17:05:34;;;;;;;0.50;0.50;;;0.50;99.90;;;;;;4854672;29;20691;-85
2021/01/14 17:08:00;;;;;;;0.50;0.50;;;0.70;99.90;;;;;;4848873;29;20203;-85
2021/01/14 17:10:29;;;;;;;0.50;0.50;;;0.70;99.90;;;;;;4847630;29;20243;-85
2021/01/14 17:12:56;;;;;;;0.50;0.50;;;0.60;99.90;;;;;;4849427;29;20214;-85
2021/01/14 17:15:22;;;;;;;0.50;0.50;;;0.70;99.90;;;;;;4856396;29;20627;-85
2021/01/14 17:17:49;;;;;;;0.50;0.50;;;0.70;99.90;;;;;;4856465;29;20630;-84